Rajiv Gandhi International Airport
VOHS : rendu visible

Aérodrome :











RETROUVEZ-NOUS SUR...

 
LOGIN :

S'inscrire | Disclaimer

   EN    FR    IT 

 









Légende :    VFR   VFR Marginal   IFR   IFR Intensif   IFR Très Intensif
Visi : 
Plafond : 
>= 8 km
>= 3000ft
5 à 8 km
1000 à 3000 ft
1500m à 5 km
500 à 1000 ft
800 à 1500m
200 à 500 ft
< 800m
< 200 ft
Symboles :   Orages  Brouillard  Fortes neiges  Fortes précipitations  Vent > 20 kt







- Altitude de l'aérodrome : 0 ft
- Code IATA : HYD


VOHS - Rajiv Gandhi International

DERNIER METAR :
  • 230430Z 18006KT 6000 FEW020 33/20 Q1017 NOSIG

METARs EXPIRÉS :
  • 230400Z 14005KT 6000 FEW020 31/21 Q1017 NOSIG
  • 230330Z 14006KT 6000 FEW020 31/21 Q1017 NOSIG
  • 230300Z 14005KT 6000 FEW020 28/21 Q1017 NOSIG
  • 230230Z 13005KT 6000 FEW020 27/21 Q1017 NOSIG
  • 230200Z 10005KT 6000 SCT020 26/20 Q1016 NOSIG

TAF TAF VOHS
Valide du 23 à 03h jusqu'au 23 à 12h UTC


230200Z 2303/2312 16010KT 6000 SCT015 SCT025
BECMG 2309/2311 05008KT
FIR VOMF / Asie



MET'MAP, la Météo Aéronautique d'un coup d'oeil ! - Copyright ORBIFLY Décembre 2007 - Disclaimer

ORBIFLY MET'MAP TEAM :

Programmation & Développement : Alexandra Zaïnal
Conception & Développement : Baudouin d'Aumeries
Co-Programmation & Développement : Marc-Olivier Méhu
Soutien technique & logistique : Manuel Goepfert

Contact : metmap@orbifly.com




SOURCES & CREDITS :

   NOAA       Earth
Advisory